createdAt,value
2022-09-22T00:02:59.907Z,101845.78
2022-09-22T00:06:07.781Z,101837.09
2022-09-22T00:09:13.864Z,101832.00
2022-09-22T00:12:17.057Z,101830.31
2022-09-22T00:15:20.182Z,101826.34
2022-09-22T00:18:23.178Z,101822.22
2022-09-22T00:21:27.805Z,101829.78
2022-09-22T00:24:31.814Z,101819.00
2022-09-22T00:27:35.367Z,101817.41
2022-09-22T00:30:42.325Z,101824.75
2022-09-22T00:33:46.317Z,101822.63
2022-09-22T00:36:51.797Z,101816.06
2022-09-22T00:39:54.742Z,101818.41
2022-09-22T00:43:14.645Z,101824.78
2022-09-22T00:46:22.898Z,101826.94
2022-09-22T00:49:33.459Z,101820.81
2022-09-22T00:52:44.581Z,101824.94
2022-09-22T00:55:51.271Z,101820.88
2022-09-22T00:59:00.512Z,101818.66
2022-09-22T01:02:04.120Z,101819.81
2022-09-22T01:05:09.312Z,101811.50
2022-09-22T01:08:16.085Z,101809.97
2022-09-22T01:11:20.773Z,101812.81
2022-09-22T01:14:51.165Z,101810.97
2022-09-22T01:18:14.337Z,101814.63
2022-09-22T01:21:35.539Z,101806.78
2022-09-22T01:24:52.485Z,101807.66
2022-09-22T01:28:29.623Z,101805.22
2022-09-22T01:31:38.244Z,101807.75
2022-09-22T01:34:50.032Z,101800.88
2022-09-22T01:38:04.904Z,101787.94
2022-09-22T01:41:12.357Z,101781.75
2022-09-22T01:44:20.778Z,101784.22
2022-09-22T01:47:32.453Z,101775.56
2022-09-22T01:50:40.895Z,101784.56
2022-09-22T01:53:50.156Z,101782.19
2022-09-22T01:56:59.590Z,101786.75
2022-09-22T02:00:07.464Z,101783.41
2022-09-22T02:03:22.465Z,101782.03
2022-09-22T02:06:33.369Z,101777.56
2022-09-22T02:09:39.942Z,101776.19
2022-09-22T02:12:47.529Z,101780.00
2022-09-22T02:16:02.770Z,101785.22
2022-09-22T02:19:13.758Z,101789.81
2022-09-22T02:22:16.841Z,101796.16
2022-09-22T02:25:20.864Z,101789.66
2022-09-22T02:28:25.930Z,101787.19
2022-09-22T02:31:33.676Z,101793.66
2022-09-22T02:34:38.202Z,101788.59
2022-09-22T02:37:49.611Z,101791.34
2022-09-22T02:41:00.600Z,101784.59
2022-09-22T02:44:09.564Z,101777.75
2022-09-22T02:47:18.549Z,101772.56
2022-09-22T02:50:26.719Z,101764.97
2022-09-22T02:53:29.704Z,101772.00
2022-09-22T02:56:33.454Z,101763.75
2022-09-22T02:59:36.456Z,101762.91
2022-09-22T03:02:39.863Z,101765.69
2022-09-22T03:05:44.153Z,101771.16
2022-09-22T03:08:47.110Z,101766.56
2022-09-22T03:11:50.056Z,101768.44
2022-09-22T03:14:53.232Z,101768.72
2022-09-22T03:17:56.585Z,101769.50
2022-09-22T03:21:00.858Z,101767.13
2022-09-22T03:24:04.671Z,101770.56
2022-09-22T03:27:07.701Z,101762.75
2022-09-22T03:30:12.600Z,101771.69
2022-09-22T03:33:15.879Z,101765.03
2022-09-22T03:36:20.177Z,101774.78
2022-09-22T03:39:23.272Z,101771.31
2022-09-22T03:42:26.346Z,101776.63
2022-09-22T03:45:29.303Z,101771.56
2022-09-22T03:48:32.664Z,101775.22
2022-09-22T03:51:37.010Z,101767.53
2022-09-22T03:54:40.119Z,101764.38
2022-09-22T03:57:43.854Z,101767.81
2022-09-22T04:00:46.821Z,101761.13
2022-09-22T04:03:49.763Z,101756.59
2022-09-22T04:06:54.110Z,101758.34
2022-09-22T04:09:57.581Z,101751.31
2022-09-22T04:13:00.703Z,101746.94
2022-09-22T04:16:06.898Z,101742.63
2022-09-22T04:19:10.176Z,101744.13
2022-09-22T04:22:14.774Z,101735.38
2022-09-22T04:25:17.871Z,101731.03
2022-09-22T04:28:20.879Z,101732.63
2022-09-22T04:31:23.918Z,101740.50
2022-09-22T04:34:26.933Z,101733.81
2022-09-22T04:37:31.220Z,101735.75
2022-09-22T04:40:34.990Z,101739.41
2022-09-22T04:43:38.051Z,101733.97
2022-09-22T04:46:41.741Z,101741.09
2022-09-22T04:49:44.887Z,101746.66
2022-09-22T04:52:53.541Z,101743.41
2022-09-22T04:55:57.152Z,101739.41
2022-09-22T04:59:00.350Z,101748.84
2022-09-22T05:02:03.605Z,101744.41
2022-09-22T05:05:08.255Z,101742.00
2022-09-22T05:08:12.564Z,101747.19
2022-09-22T05:11:15.593Z,101745.59
2022-09-22T05:14:24.086Z,101736.22
2022-09-22T05:17:29.770Z,101741.34
2022-09-22T05:20:33.236Z,101751.78
2022-09-22T05:23:37.622Z,101753.38
2022-09-22T05:26:40.531Z,101748.19
2022-09-22T05:29:43.644Z,101750.78
2022-09-22T05:32:48.797Z,101743.84
2022-09-22T05:35:51.757Z,101747.28
2022-09-22T05:38:56.226Z,101747.19
2022-09-22T05:42:02.150Z,101747.94
2022-09-22T05:45:06.059Z,101746.91
2022-09-22T05:48:09.412Z,101748.53
2022-09-22T05:51:12.518Z,101743.31
2022-09-22T05:54:20.108Z,101748.34
2022-09-22T05:57:27.480Z,101744.66
2022-09-22T06:00:31.497Z,101746.13
2022-09-22T06:03:34.473Z,101750.94
2022-09-22T06:06:37.369Z,101742.72
2022-09-22T06:09:41.723Z,101736.25
2022-09-22T06:12:46.791Z,101743.69
2022-09-22T06:15:50.467Z,101747.63
2022-09-22T06:18:53.725Z,101741.97
2022-09-22T06:21:56.981Z,101734.38
2022-09-22T06:25:01.817Z,101740.72
2022-09-22T06:28:07.184Z,101729.88
2022-09-22T06:31:10.149Z,101740.41
2022-09-22T06:34:13.118Z,101739.56
2022-09-22T06:37:16.990Z,101741.47
2022-09-22T06:40:21.736Z,101739.94
2022-09-22T06:43:24.728Z,101735.13
2022-09-22T06:46:29.927Z,101734.53
2022-09-22T06:49:33.005Z,101732.63
2022-09-22T06:52:38.414Z,101731.69
2022-09-22T06:55:43.120Z,101740.44
2022-09-22T06:59:08.359Z,101753.91
2022-09-22T07:02:11.195Z,101751.31
2022-09-22T07:05:14.501Z,101762.94
2022-09-22T07:08:17.575Z,101771.16
2022-09-22T07:11:23.521Z,101780.94
2022-09-22T07:14:26.746Z,101789.13
2022-09-22T07:17:31.735Z,101801.72
2022-09-22T07:20:35.630Z,101800.97
2022-09-22T07:23:38.843Z,101814.00
2022-09-22T07:26:44.028Z,101818.09
2022-09-22T07:29:47.932Z,101826.41
2022-09-22T07:32:50.915Z,101832.91
2022-09-22T07:36:08.858Z,101834.16
2022-09-22T07:39:12.514Z,101835.88
2022-09-22T07:42:17.405Z,101841.50
2022-09-22T07:45:21.885Z,101849.69
2022-09-22T07:48:37.467Z,101856.91
2022-09-22T07:51:41.265Z,101865.38
2022-09-22T07:54:44.956Z,101870.00
2022-09-22T07:57:55.611Z,101887.56
2022-09-22T08:00:58.570Z,101887.56
2022-09-22T08:04:02.615Z,101895.19
2022-09-22T08:07:05.550Z,101899.66
2022-09-22T08:10:10.827Z,101906.88
2022-09-22T08:13:16.011Z,101907.94
2022-09-22T08:16:19.248Z,101918.16
2022-09-22T08:19:24.575Z,101923.00
2022-09-22T08:22:27.635Z,101928.56
2022-09-22T08:25:30.631Z,101938.19
2022-09-22T08:28:35.961Z,101944.38
2022-09-22T08:31:42.083Z,101953.00
2022-09-22T08:34:45.103Z,101951.38
2022-09-22T08:37:50.328Z,101957.94
2022-09-22T08:41:15.201Z,101973.47
2022-09-22T08:44:23.930Z,101987.16
2022-09-22T08:47:51.964Z,101983.06
2022-09-22T08:51:18.935Z,101984.88
2022-09-22T08:54:26.867Z,101990.72
2022-09-22T08:57:56.960Z,101996.47
2022-09-22T09:01:14.558Z,101998.38
2022-09-22T09:04:53.930Z,102000.50
2022-09-22T09:08:04.431Z,102007.34
2022-09-22T09:11:19.569Z,102001.69
2022-09-22T09:14:41.708Z,102000.13
2022-09-22T09:17:48.318Z,102004.59
2022-09-22T09:20:53.210Z,102004.28
2022-09-22T09:27:28.829Z,102002.28
2022-09-22T09:30:42.665Z,102006.63
2022-09-22T09:33:56.735Z,102008.38
2022-09-22T09:37:07.769Z,101999.66
2022-09-22T09:40:18.333Z,101995.97
2022-09-22T09:43:23.812Z,101982.41
2022-09-22T09:46:43.815Z,101990.88
2022-09-22T09:49:52.785Z,101994.91
2022-09-22T09:52:58.252Z,101991.91
2022-09-22T09:56:01.713Z,101995.28
2022-09-22T09:59:25.240Z,101989.91
2022-09-22T10:02:31.544Z,101986.84
2022-09-22T10:05:38.196Z,101995.41
2022-09-22T10:08:46.689Z,101990.63
2022-09-22T10:12:00.162Z,101987.59
2022-09-22T10:15:12.535Z,101995.41
2022-09-22T10:18:35.694Z,101991.13
2022-09-22T10:21:39.958Z,101999.94
2022-09-22T10:24:58.736Z,101995.66
2022-09-22T10:28:06.866Z,101992.25
2022-09-22T10:31:21.959Z,101998.25
2022-09-22T10:34:31.967Z,101994.50
2022-09-22T10:37:36.387Z,101991.59
2022-09-22T10:40:42.538Z,101986.97
2022-09-22T10:43:51.647Z,101983.28
2022-09-22T10:47:30.129Z,101995.50
2022-09-22T10:50:52.099Z,101987.72
2022-09-22T10:54:24.503Z,101986.97
2022-09-22T10:58:00.386Z,101989.69
2022-09-22T11:01:29.311Z,101986.84
2022-09-22T11:04:57.836Z,101990.25
2022-09-22T11:08:27.046Z,101992.59
2022-09-22T11:11:59.422Z,101986.50
2022-09-22T11:15:19.845Z,101984.56
2022-09-22T11:18:58.188Z,101984.97
2022-09-22T11:22:22.249Z,101979.53
2022-09-22T11:25:49.087Z,101978.97
2022-09-22T11:29:23.293Z,101984.22
2022-09-22T11:33:02.248Z,101978.69
2022-09-22T11:36:21.619Z,101968.31
2022-09-22T11:39:41.055Z,101966.75
2022-09-22T11:42:59.435Z,101958.03
2022-09-22T11:46:17.536Z,101955.56
2022-09-22T11:49:36.654Z,101944.53
2022-09-22T11:53:18.086Z,101949.00
2022-09-22T11:56:35.311Z,101945.25
2022-09-22T11:59:44.634Z,101947.22
2022-09-22T12:02:56.108Z,101941.50
2022-09-22T12:06:08.474Z,101945.34
2022-09-22T12:09:23.546Z,101925.84
2022-09-22T12:12:29.505Z,101923.19
2022-09-22T12:15:39.063Z,101926.53
2022-09-22T12:18:49.883Z,101918.44
2022-09-22T12:21:59.726Z,101914.28
2022-09-22T12:25:02.699Z,101920.25
2022-09-22T12:28:05.644Z,101909.97
2022-09-22T12:31:12.986Z,101919.00
2022-09-22T12:34:22.886Z,101909.94
2022-09-22T12:37:30.478Z,101906.88
2022-09-22T12:40:37.806Z,101906.47
2022-09-22T12:43:41.659Z,101900.91
2022-09-22T12:46:45.325Z,101904.75
2022-09-22T12:49:57.075Z,101901.56
2022-09-22T12:53:04.892Z,101904.53
2022-09-22T12:56:47.073Z,101896.97
2022-09-22T13:00:20.921Z,101897.53
2022-09-22T13:03:49.634Z,101900.03
2022-09-22T13:07:00.650Z,101898.06
2022-09-22T13:10:57.931Z,101898.66
2022-09-22T13:14:02.438Z,101890.47
2022-09-22T13:17:42.936Z,101895.13
2022-09-22T13:20:47.420Z,101889.75
2022-09-22T13:23:59.826Z,101883.28
2022-09-22T13:27:05.894Z,101886.44
2022-09-22T13:30:14.017Z,101884.75
2022-09-22T13:33:23.298Z,101877.88
2022-09-22T13:36:28.781Z,101879.44
2022-09-22T13:39:35.193Z,101871.34
2022-09-22T13:42:38.534Z,101868.91
2022-09-22T13:45:46.699Z,101869.38
2022-09-22T13:48:51.943Z,101866.63
2022-09-22T13:52:00.421Z,101859.44
2022-09-22T13:55:11.502Z,101855.31
2022-09-22T13:58:16.558Z,101849.88
2022-09-22T14:01:26.704Z,101849.09
2022-09-22T14:04:29.772Z,101831.50
2022-09-22T14:07:45.166Z,101841.38
2022-09-22T14:10:53.274Z,101840.44
2022-09-22T14:14:01.486Z,101851.94
2022-09-22T14:17:09.731Z,101849.91
2022-09-22T14:20:16.439Z,101840.94
2022-09-22T14:23:29.128Z,101837.59
2022-09-22T14:26:37.544Z,101841.94
2022-09-22T14:29:41.590Z,101834.72
2022-09-22T14:32:50.270Z,101834.34
2022-09-22T14:36:01.317Z,101828.22
2022-09-22T14:39:10.257Z,101828.91
2022-09-22T14:42:21.191Z,101839.00
2022-09-22T14:45:27.229Z,101842.97
2022-09-22T14:48:34.067Z,101842.22
2022-09-22T14:51:37.391Z,101828.88
2022-09-22T14:54:40.702Z,101836.22
2022-09-22T14:57:49.962Z,101828.44
2022-09-22T15:01:14.830Z,101827.31
2022-09-22T15:04:28.891Z,101827.13
2022-09-22T15:07:35.855Z,101826.28
2022-09-22T15:10:40.819Z,101824.94
2022-09-22T15:13:46.278Z,101826.28
2022-09-22T15:16:49.362Z,101816.13
2022-09-22T15:19:58.446Z,101819.34
2022-09-22T15:23:01.738Z,101820.69
2022-09-22T15:26:05.553Z,101817.41
2022-09-22T15:29:15.867Z,101813.59
2022-09-22T15:32:19.103Z,101818.44
2022-09-22T15:35:27.246Z,101817.97
2022-09-22T15:38:35.086Z,101808.50
2022-09-22T15:41:38.750Z,101807.69
2022-09-22T15:44:42.143Z,101811.28
2022-09-22T15:47:46.236Z,101807.47
2022-09-22T15:50:51.254Z,101804.19
2022-09-22T15:53:54.178Z,101807.31
2022-09-22T15:57:00.445Z,101807.25
2022-09-22T16:00:14.362Z,101803.66
2022-09-22T16:03:22.502Z,101799.22
2022-09-22T16:06:27.115Z,101788.00
2022-09-22T16:09:30.221Z,101799.00
2022-09-22T16:12:33.262Z,101802.78
2022-09-22T16:15:36.311Z,101799.31
2022-09-22T16:18:41.779Z,101792.72
2022-09-22T16:21:54.148Z,101793.72
2022-09-22T16:24:57.524Z,101790.22
2022-09-22T16:28:00.989Z,101789.19
2022-09-22T16:31:04.556Z,101785.81
2022-09-22T16:34:10.678Z,101788.97
2022-09-22T16:37:16.001Z,101782.31
2022-09-22T16:40:19.927Z,101781.75
2022-09-22T16:43:22.891Z,101784.81
2022-09-22T16:46:28.002Z,101782.63
2022-09-22T16:49:34.004Z,101785.47
2022-09-22T16:52:40.448Z,101785.25
2022-09-22T16:55:49.205Z,101775.94
2022-09-22T16:58:53.316Z,101775.00
2022-09-22T17:01:57.034Z,101776.97
2022-09-22T17:05:00.017Z,101768.97
2022-09-22T17:08:06.969Z,101776.41
2022-09-22T17:11:12.137Z,101776.75
2022-09-22T17:14:17.194Z,101777.09
2022-09-22T17:17:20.231Z,101779.06
2022-09-22T17:20:24.603Z,101783.41
2022-09-22T17:23:28.958Z,101772.16
2022-09-22T17:26:35.343Z,101764.41
2022-09-22T17:29:39.003Z,101765.38
2022-09-22T17:32:41.990Z,101764.63
2022-09-22T17:35:44.977Z,101768.41
2022-09-22T17:38:51.514Z,101763.19
2022-09-22T17:41:55.028Z,101754.50
2022-09-22T17:44:58.088Z,101748.06
2022-09-22T17:48:18.962Z,101746.94
2022-09-22T17:51:48.411Z,101742.94
2022-09-22T17:55:08.987Z,101743.38
2022-09-22T17:58:11.935Z,101737.94
2022-09-22T18:01:15.069Z,101731.25
2022-09-22T18:04:18.038Z,101733.09
2022-09-22T18:07:23.847Z,101718.91
2022-09-22T18:10:32.379Z,101728.44
2022-09-22T18:13:39.154Z,101719.72
2022-09-22T18:16:43.697Z,101718.47
2022-09-22T18:19:48.346Z,101716.84
2022-09-22T18:22:51.388Z,101710.38
2022-09-22T18:25:55.692Z,101713.34
2022-09-22T18:28:59.141Z,101706.31
2022-09-22T18:32:03.853Z,101694.34
2022-09-22T18:35:08.466Z,101690.13
2022-09-22T18:38:12.125Z,101699.41
2022-09-22T18:41:19.696Z,101693.13
2022-09-22T18:44:23.523Z,101685.84
2022-09-22T18:47:26.601Z,101684.50
2022-09-22T18:50:31.149Z,101685.31
2022-09-22T18:53:34.189Z,101681.66
2022-09-22T18:56:41.149Z,101677.38
2022-09-22T18:59:44.291Z,101678.63
2022-09-22T19:02:48.122Z,101672.41
2022-09-22T19:05:51.467Z,101680.66
2022-09-22T19:08:54.570Z,101676.38
2022-09-22T19:11:59.854Z,101676.03
2022-09-22T19:15:03.307Z,101683.41
2022-09-22T19:18:07.526Z,101680.41
2022-09-22T19:21:14.282Z,101697.63
2022-09-22T19:24:17.687Z,101695.44
2022-09-22T19:27:22.603Z,101699.38
2022-09-22T19:30:28.582Z,101693.56
2022-09-22T19:33:34.309Z,101699.59
2022-09-22T19:36:38.688Z,101706.13
2022-09-22T19:39:43.076Z,101699.53
2022-09-22T19:42:48.707Z,101697.84
2022-09-22T19:45:52.661Z,101686.44
2022-09-22T19:48:57.188Z,101696.47
2022-09-22T19:52:00.289Z,101686.47
2022-09-22T19:55:03.643Z,101678.97
2022-09-22T19:58:08.165Z,101680.47
2022-09-22T20:01:11.606Z,101668.34
2022-09-22T20:04:17.869Z,101666.97
2022-09-22T20:07:20.848Z,101660.53
2022-09-22T20:10:24.251Z,101659.19
2022-09-22T20:13:46.226Z,101656.75
2022-09-22T20:16:51.720Z,101644.03
2022-09-22T20:19:55.315Z,101645.28
2022-09-22T20:23:00.291Z,101650.66
2022-09-22T20:26:03.635Z,101648.81
2022-09-22T20:29:08.019Z,101651.81
2022-09-22T20:32:11.484Z,101648.50
2022-09-22T20:35:17.959Z,101646.03
2022-09-22T20:38:21.016Z,101643.75
2022-09-22T20:41:24.972Z,101644.97
2022-09-22T20:44:29.310Z,101645.28
2022-09-22T20:47:32.863Z,101635.81
2022-09-22T20:50:36.148Z,101639.78
2022-09-22T20:53:39.567Z,101637.47
2022-09-22T20:56:43.130Z,101635.81
2022-09-22T20:59:47.587Z,101639.28
2022-09-22T21:02:52.269Z,101634.25
2022-09-22T21:06:00.265Z,101636.06
2022-09-22T21:09:21.099Z,101631.97
2022-09-22T21:12:30.053Z,101637.38
2022-09-22T21:15:35.581Z,101641.84
2022-09-22T21:18:40.023Z,101627.81
2022-09-22T21:21:42.987Z,101629.91
2022-09-22T21:24:48.864Z,101629.91
2022-09-22T21:27:51.806Z,101626.88
2022-09-22T21:31:01.481Z,101625.19
2022-09-22T21:34:04.815Z,101625.31
2022-09-22T21:37:08.107Z,101628.00
2022-09-22T21:40:11.353Z,101618.75
2022-09-22T21:43:14.461Z,101620.63
2022-09-22T21:46:21.951Z,101628.03
2022-09-22T21:49:25.011Z,101622.88
2022-09-22T21:52:28.191Z,101620.25
2022-09-22T21:55:31.352Z,101625.56
2022-09-22T21:58:37.078Z,101620.44
2022-09-22T22:01:44.918Z,101609.97
2022-09-22T22:04:48.049Z,101618.69
2022-09-22T22:07:51.082Z,101621.69
2022-09-22T22:11:04.430Z,101611.25
2022-09-22T22:14:11.054Z,101617.13
2022-09-22T22:17:15.642Z,101606.84
2022-09-22T22:20:18.564Z,101620.28
2022-09-22T22:23:21.955Z,101610.72
2022-09-22T22:26:26.810Z,101617.13
2022-09-22T22:29:32.242Z,101611.44
2022-09-22T22:32:37.068Z,101605.41
2022-09-22T22:35:39.987Z,101598.53
2022-09-22T22:38:44.835Z,101591.94
2022-09-22T22:41:48.653Z,101600.69
2022-09-22T22:44:51.675Z,101596.50
2022-09-22T22:47:56.244Z,101596.63
2022-09-22T22:51:03.470Z,101591.44
2022-09-22T22:54:10.859Z,101600.34
2022-09-22T22:57:13.862Z,101592.63
2022-09-22T23:00:16.993Z,101593.75
2022-09-22T23:03:21.721Z,101597.44
2022-09-22T23:06:27.298Z,101595.75
2022-09-22T23:09:30.242Z,101588.69
2022-09-22T23:12:34.547Z,101592.19
2022-09-22T23:15:37.526Z,101584.47
2022-09-22T23:18:43.561Z,101583.66
2022-09-22T23:21:47.116Z,101591.75
2022-09-22T23:24:50.032Z,101585.97
2022-09-22T23:27:53.649Z,101584.13
2022-09-22T23:31:02.811Z,101581.25
2022-09-22T23:34:07.182Z,101583.31
2022-09-22T23:37:10.555Z,101573.09
2022-09-22T23:40:13.541Z,101571.41
2022-09-22T23:43:17.038Z,101563.69
2022-09-22T23:46:21.206Z,101566.47
2022-09-22T23:49:25.712Z,101563.28
2022-09-22T23:52:28.666Z,101557.69
2022-09-22T23:55:32.898Z,101550.50
2022-09-22T23:58:38.021Z,101556.59
